Time;durP1;ratioP1;P1;durP2;ratioP2;P2;SDS_P1;SDS_P2;PMS_P1;PMS_P2;Temp;Humidity;BMP_temperature;BMP_pressure;BME280_temperature;BME280_humidity;BME280_pressure;Samples;Min_cycle;Max_cycle;Signal;HPM_P1;HPM_P2
2023/10/08 00:01:16;;;;;;;1585.00;999.90;;;13.30;99.90;;;;;;4898402;29;20052;-95
2023/10/08 00:03:53;;;;;;;1523.55;999.90;;;13.20;99.90;;;;;;4899405;29;20055;-95
2023/10/08 00:06:21;;;;;;;1491.45;999.90;;;13.20;99.90;;;;;;4903278;29;20059;-95
2023/10/08 00:08:48;;;;;;;1600.18;999.90;;;13.60;99.90;;;;;;4904047;29;20148;-95
2023/10/08 00:11:15;;;;;;;1510.82;999.90;;;13.30;99.90;;;;;;4907031;29;20114;-96
2023/10/08 00:13:43;;;;;;;1549.60;999.90;;;13.20;99.90;;;;;;4900109;29;20049;-95
2023/10/08 00:16:18;;;;;;;1560.30;999.90;;;13.20;99.90;;;;;;4900899;29;20573;-96
2023/10/08 00:18:49;;;;;;;1481.57;999.90;;;13.30;99.90;;;;;;4898363;29;20045;-96
2023/10/08 00:21:20;;;;;;;1535.32;999.90;;;13.20;99.90;;;;;;4895252;29;20488;-96
2023/10/08 00:23:56;;;;;;;1479.93;999.90;;;13.20;99.90;;;;;;4895219;29;20024;-96
2023/10/08 00:26:29;;;;;;;1592.13;999.90;;;13.20;99.90;;;;;;4908229;29;20559;-96
2023/10/08 00:28:59;;;;;;;1604.60;999.90;;;13.20;99.90;;;;;;4888740;29;20112;-96
2023/10/08 00:31:40;;;;;;;1512.63;999.90;;;13.20;99.90;;;;;;4895939;29;20048;-96
2023/10/08 00:34:13;;;;;;;1403.88;999.22;;;13.20;99.90;;;;;;4898789;29;20048;-96
2023/10/08 00:36:42;;;;;;;;;;;13.10;99.90;;;;;;4902346;29;20131;-96
2023/10/08 00:39:22;;;;;;;1447.43;999.90;;;13.30;99.90;;;;;;4915426;29;19967;-95
2023/10/08 00:41:58;;;;;;;1522.18;999.90;;;13.20;99.90;;;;;;4925365;29;20067;-96
2023/10/08 00:44:35;;;;;;;1530.60;999.90;;;13.30;99.90;;;;;;4894547;29;20112;-95
2023/10/08 00:47:04;;;;;;;1565.07;999.90;;;13.20;99.90;;;;;;4901403;29;20055;-95
2023/10/08 00:49:48;;;;;;;1281.43;986.15;;;13.20;99.90;;;;;;4909111;29;20056;-96
2023/10/08 00:57:30;;;;;;;1444.32;999.90;;;13.30;99.90;;;;;;4923441;29;20076;-96
2023/10/08 00:59:59;;;;;;;1383.03;999.42;;;13.30;99.90;;;;;;4911942;29;20048;-96
2023/10/08 01:02:44;;;;;;;1493.00;999.90;;;13.30;99.90;;;;;;4912614;29;20074;-96
2023/10/08 01:05:28;;;;;;;1391.53;995.35;;;13.40;99.90;;;;;;4908996;29;20044;-95
2023/10/08 01:08:16;;;;;;;;;;;;;;;;;;;;;
2023/10/08 01:10:43;;;;;;;1429.85;999.90;;;13.30;99.90;;;;;;4918367;29;20127;-96
2023/10/08 01:13:19;;;;;;;1287.22;982.35;;;13.30;99.90;;;;;;4892211;29;20052;-95
2023/10/08 01:15:51;;;;;;;1405.05;999.03;;;13.40;99.90;;;;;;4902205;29;20049;-96
2023/10/08 01:18:29;;;;;;;1546.93;999.90;;;13.20;99.90;;;;;;4896113;29;20051;-96
2023/10/08 01:21:06;;;;;;;;;;;;;;;;;;;;;
2023/10/08 01:23:32;;;;;;;1379.28;997.63;;;13.20;99.90;;;;;;4916716;29;20457;-96
2023/10/08 01:26:22;;;;;;;1518.35;999.90;;;13.30;99.90;;;;;;4898813;29;20079;-94
2023/10/08 01:28:54;;;;;;;1374.22;998.58;;;13.30;99.90;;;;;;4895378;29;20048;-96
2023/10/08 01:31:20;;;;;;;1434.35;999.90;;;13.30;99.90;;;;;;4892312;29;20503;-95
2023/10/08 01:33:56;;;;;;;1456.13;999.90;;;13.40;99.90;;;;;;4896243;29;20044;-94
2023/10/08 01:36:28;;;;;;;1461.53;999.90;;;13.30;99.90;;;;;;4897606;29;20036;-95
2023/10/08 01:38:54;;;;;;;1380.45;999.60;;;13.40;99.90;;;;;;4899059;29;20614;-95
2023/10/08 01:41:30;;;;;;;1387.30;996.78;;;13.40;99.90;;;;;;4896947;29;20063;-96
2023/10/08 01:44:00;;;;;;;1385.85;998.33;;;13.30;99.90;;;;;;4897885;29;20147;-96
2023/10/08 01:46:27;;;;;;;1192.10;959.17;;;13.40;99.90;;;;;;4885372;29;20064;-96
2023/10/08 01:49:00;;;;;;;1333.25;990.88;;;13.40;99.90;;;;;;4897590;29;20139;-96
2023/10/08 01:51:36;;;;;;;1431.07;999.90;;;13.40;99.90;;;;;;4898550;29;20044;-96
2023/10/08 01:54:09;;;;;;;1346.90;990.40;;;13.40;99.90;;;;;;4895400;29;20513;-96
2023/10/08 01:56:41;;;;;;;1348.70;985.17;;;13.40;99.90;;;;;;4898244;29;20070;-96
2023/10/08 01:59:15;;;;;;;1423.60;998.90;;;13.40;99.90;;;;;;4897778;29;20036;-96
2023/10/08 02:01:42;;;;;;;1222.25;976.35;;;13.40;99.90;;;;;;4893378;29;20493;-96
2023/10/08 02:04:16;;;;;;;1217.88;965.05;;;13.40;99.90;;;;;;4896245;29;20040;-96
2023/10/08 02:06:42;;;;;;;1304.00;977.83;;;13.50;99.90;;;;;;4895940;29;20052;-96
2023/10/08 02:09:13;;;;;;;1340.18;984.88;;;13.40;99.90;;;;;;4905794;29;20063;-96
2023/10/08 02:11:44;;;;;;;1313.35;983.17;;;13.40;99.90;;;;;;4888463;29;20476;-96
2023/10/08 02:14:11;;;;;;;1355.70;996.05;;;13.10;99.90;;;;;;4884219;29;20508;-96
2023/10/08 02:16:44;;;;;;;1317.05;977.65;;;13.40;99.90;;;;;;4879269;29;20623;-96
2023/10/08 02:19:10;;;;;;;1298.40;982.70;;;13.50;99.90;;;;;;4894337;29;20131;-96
2023/10/08 02:21:39;;;;;;;1209.05;954.15;;;13.40;99.90;;;;;;4892029;29;20143;-96
2023/10/08 02:24:08;;;;;;;1212.13;958.08;;;13.50;99.90;;;;;;4893911;29;20053;-96
2023/10/08 02:26:34;;;;;;;1197.10;951.65;;;13.40;99.90;;;;;;4893735;29;20108;-96
2023/10/08 02:29:01;;;;;;;1189.82;955.25;;;13.40;99.90;;;;;;4898349;29;20131;-96
2023/10/08 02:31:27;;;;;;;1290.70;983.40;;;13.40;99.90;;;;;;4896496;29;20066;-96
2023/10/08 02:33:54;;;;;;;1314.72;993.63;;;13.40;99.90;;;;;;4894916;29;20111;-96
2023/10/08 02:36:23;;;;;;;1293.45;979.40;;;13.40;99.90;;;;;;4892523;29;20052;-95
2023/10/08 02:38:52;;;;;;;1299.53;983.72;;;13.40;99.90;;;;;;4882103;29;20059;-96
2023/10/08 02:41:21;;;;;;;1293.70;976.00;;;13.40;99.90;;;;;;4896531;29;20048;-96
2023/10/08 02:43:50;;;;;;;1318.50;986.92;;;13.40;99.90;;;;;;4897367;29;20072;-96
2023/10/08 02:46:18;;;;;;;1202.47;959.05;;;13.40;99.90;;;;;;4897747;29;20489;-96
2023/10/08 02:48:48;;;;;;;1195.05;957.67;;;13.40;99.90;;;;;;4893618;29;20112;-96
2023/10/08 02:51:16;;;;;;;1234.95;969.17;;;13.40;99.90;;;;;;4891636;29;20041;-95
2023/10/08 02:53:43;;;;;;;1265.05;972.50;;;13.40;99.90;;;;;;4886020;29;20067;-96
2023/10/08 02:56:14;;;;;;;1257.85;969.22;;;13.30;99.90;;;;;;4895426;29;20052;-96
2023/10/08 02:58:43;;;;;;;1171.38;939.58;;;13.40;99.90;;;;;;4896221;29;20048;-96
2023/10/08 03:01:12;;;;;;;1283.38;976.53;;;13.30;99.90;;;;;;4886036;29;20044;-96
2023/10/08 03:03:40;;;;;;;1258.15;971.30;;;13.30;99.90;;;;;;4896997;29;20076;-96
2023/10/08 03:06:16;;;;;;;1257.93;977.35;;;13.30;99.90;;;;;;4894733;29;20050;-95
2023/10/08 03:08:47;;;;;;;1211.22;953.03;;;13.30;99.90;;;;;;4880128;29;20190;-95
2023/10/08 03:11:25;;;;;;;1297.55;984.03;;;13.30;99.90;;;;;;4897112;29;20106;-95
2023/10/08 03:13:52;;;;;;;1191.00;949.15;;;13.30;99.90;;;;;;4885127;29;20048;-95
2023/10/08 03:16:27;;;;;;;1182.93;945.50;;;13.30;99.90;;;;;;4897567;29;20080;-96
2023/10/08 03:19:01;;;;;;;1179.70;949.28;;;13.30;99.90;;;;;;4891944;29;20116;-96
2023/10/08 03:21:50;;;;;;;1247.18;971.92;;;13.30;99.90;;;;;;4890174;29;20476;-96
2023/10/08 03:24:37;;;;;;;1218.93;961.10;;;13.30;99.90;;;;;;4897102;29;20052;-96
2023/10/08 03:27:20;;;;;;;1143.50;940.65;;;13.30;99.90;;;;;;4896725;29;20209;-96
2023/10/08 03:29:48;;;;;;;1298.25;973.15;;;13.30;99.90;;;;;;4896548;29;20454;-96
2023/10/08 03:32:24;;;;;;;1335.78;994.30;;;13.20;99.90;;;;;;4896259;29;20048;-95
2023/10/08 03:34:59;;;;;;;1282.57;980.10;;;13.20;99.90;;;;;;4896087;29;20040;-96
2023/10/08 03:37:41;;;;;;;1168.10;946.47;;;13.30;99.90;;;;;;4896245;29;20052;-94
2023/10/08 03:40:25;;;;;;;1224.72;959.13;;;13.30;99.90;;;;;;4901460;29;20059;-96
2023/10/08 03:43:33;;;;;;;1253.55;978.83;;;13.30;99.90;;;;;;4896671;29;20041;-95
2023/10/08 03:48:33;;;;;;;1355.22;996.50;;;13.30;99.90;;;;;;4898966;29;20063;-96
2023/10/08 03:51:16;;;;;;;1426.53;999.90;;;13.30;99.90;;;;;;4896531;29;20055;-95
2023/10/08 03:54:19;;;;;;;1386.30;999.90;;;13.30;99.90;;;;;;4895521;29;20483;-96
2023/10/08 03:56:45;;;;;;;1319.32;982.42;;;13.30;99.90;;;;;;4913740;29;20072;-96
2023/10/08 03:59:17;;;;;;;1235.32;970.63;;;13.20;99.90;;;;;;4896366;29;20127;-95
2023/10/08 04:01:54;;;;;;;1375.35;994.30;;;13.30;99.90;;;;;;4888644;29;20047;-96
2023/10/08 04:04:30;;;;;;;1208.28;964.60;;;13.30;99.90;;;;;;4893474;29;20091;-96
2023/10/08 04:07:24;;;;;;;1296.72;995.95;;;13.20;99.90;;;;;;4894158;29;20047;-95
2023/10/08 04:09:45;;;;;;;1237.82;972.35;;;13.20;99.90;;;;;;4913518;29;20580;-95
2023/10/08 04:12:21;;;;;;;1322.38;996.10;;;13.30;99.90;;;;;;4896251;29;20048;-95
2023/10/08 04:14:49;;;;;;;1297.43;988.95;;;13.30;99.90;;;;;;4890991;29;20056;-95
2023/10/08 04:17:22;;;;;;;1242.30;976.30;;;13.30;99.90;;;;;;4898890;29;20052;-94
2023/10/08 04:19:53;;;;;;;1260.70;985.15;;;13.10;99.90;;;;;;4896261;29;20052;-95
2023/10/08 04:22:28;;;;;;;;;;;;;;;;;;;;;
2023/10/08 04:25:04;;;;;;;;;;;;;;;;;;;;;
2023/10/08 04:27:33;;;;;;;1203.30;959.72;;;13.20;99.90;;;;;;4902318;29;20056;-95
2023/10/08 04:30:01;;;;;;;1326.03;997.03;;;13.20;99.90;;;;;;4898014;29;20495;-95
2023/10/08 04:32:32;;;;;;;1384.38;998.40;;;13.30;99.90;;;;;;4899041;29;20048;-96
2023/10/08 04:35:00;;;;;;;1240.40;980.00;;;13.30;99.90;;;;;;4898923;29;20197;-95
2023/10/08 04:37:32;;;;;;;1341.60;998.13;;;13.30;99.90;;;;;;4897323;29;20044;-95
2023/10/08 04:40:16;;;;;;;1335.22;994.00;;;13.30;99.90;;;;;;4898206;29;20064;-96
2023/10/08 04:42:54;;;;;;;;;;;;;;;;;;;;;
2023/10/08 04:45:26;;;;;;;1278.88;982.35;;;13.30;99.90;;;;;;4904560;29;20136;-95
2023/10/08 04:48:01;;;;;;;1154.38;943.33;;;13.30;99.90;;;;;;4896163;29;20075;-95
2023/10/08 04:50:30;;;;;;;1211.15;969.58;;;13.30;99.90;;;;;;4913882;29;20047;-95
2023/10/08 04:53:07;;;;;;;1151.70;952.92;;;13.20;99.90;;;;;;4898169;29;20044;-95
2023/10/08 04:56:02;;;;;;;1231.28;977.85;;;13.20;99.90;;;;;;4897616;29;20066;-95
2023/10/08 04:58:33;;;;;;;1192.15;951.60;;;13.20;99.90;;;;;;4898495;29;20488;-96
2023/10/08 05:01:17;;;;;;;1191.75;958.55;;;13.10;99.90;;;;;;4898247;29;20049;-95
2023/10/08 05:03:55;;;;;;;1150.35;944.17;;;13.20;99.90;;;;;;4898478;29;20048;-95
2023/10/08 05:09:22;;;;;;;1238.38;967.95;;;13.00;99.90;;;;;;4912216;29;20060;-95
2023/10/08 05:12:10;;;;;;;1270.65;988.58;;;13.20;99.90;;;;;;4897114;29;20044;-95
2023/10/08 05:14:55;;;;;;;1280.22;981.10;;;13.20;99.90;;;;;;4897896;29;20044;-95
2023/10/08 05:17:42;;;;;;;1188.35;956.33;;;13.10;99.90;;;;;;4888630;29;20050;-95
2023/10/08 05:20:30;;;;;;;1146.18;943.35;;;13.20;99.90;;;;;;4898163;29;20050;-96
2023/10/08 05:23:52;;;;;;;;;;;;;;;;;;;;;
2023/10/08 05:26:20;;;;;;;1323.82;996.25;;;13.10;99.90;;;;;;4900288;29;20131;-95
2023/10/08 05:29:39;;;;;;;1116.85;946.75;;;13.10;99.90;;;;;;4879668;29;20504;-96
2023/10/08 05:31:53;;;;;;;1218.80;966.38;;;13.10;99.90;;;;;;4909898;29;20090;-95
2023/10/08 05:34:42;;;;;;;1129.45;941.03;;;13.10;99.90;;;;;;4898215;29;21984;-95
2023/10/08 05:40:04;;;;;;;1247.68;969.78;;;13.00;99.90;;;;;;4918299;29;20057;-94
2023/10/08 05:42:45;;;;;;;1227.15;969.65;;;13.00;99.90;;;;;;4897561;29;20056;-95
2023/10/08 05:45:25;;;;;;;;;;;;;;;;;;;;;
2023/10/08 05:48:14;;;;;;;1136.60;939.20;;;13.00;99.90;;;;;;4894867;29;20087;-95
2023/10/08 05:50:54;;;;;;;1257.43;980.75;;;13.00;99.90;;;;;;4897945;29;20066;-96
2023/10/08 05:53:43;;;;;;;1113.00;932.65;;;12.90;99.90;;;;;;4898048;29;20051;-93
2023/10/08 05:56:28;;;;;;;1263.93;982.58;;;12.90;99.90;;;;;;4864391;29;20076;-95
2023/10/08 05:59:14;;;;;;;1128.90;941.15;;;12.90;99.90;;;;;;4861331;29;20068;-95
2023/10/08 06:08:10;;;;;;;1114.15;945.95;;;12.90;99.90;;;;;;4862249;29;20097;-94
2023/10/08 06:10:43;;;;;;;1120.15;944.30;;;12.90;99.90;;;;;;4860277;29;20053;-95
2023/10/08 06:13:43;;;;;;;;;;;12.70;99.90;;;;;;4850288;29;20097;-95
2023/10/08 06:16:13;;;;;;;1211.05;963.75;;;12.80;99.90;;;;;;4855736;29;19924;-96
2023/10/08 06:18:39;;;;;;;1294.05;978.55;;;12.90;99.90;;;;;;4860472;29;20040;-96
2023/10/08 06:21:11;;;;;;;1260.68;978.17;;;12.80;99.90;;;;;;4857259;29;20036;-96
2023/10/08 06:27:09;;;;;;;1185.32;956.85;;;12.80;99.90;;;;;;4877709;29;20068;-96
2023/10/08 06:29:44;;;;;;;1179.82;948.95;;;12.80;99.90;;;;;;4862288;29;20103;-96
2023/10/08 06:32:50;;;;;;;1307.70;986.83;;;12.80;99.90;;;;;;4858294;29;20045;-96
2023/10/08 06:36:42;;;;;;;1220.78;958.90;;;13.20;99.90;;;;;;4833125;29;20152;-94
2023/10/08 06:39:33;;;;;;;1065.78;927.38;;;12.90;99.90;;;;;;4869504;28;20071;-95
2023/10/08 06:41:59;;;;;;;1248.72;980.75;;;13.00;99.90;;;;;;4863481;29;20104;-95
2023/10/08 06:44:58;;;;;;;1230.53;981.70;;;13.00;99.90;;;;;;4873643;29;20470;-95
2023/10/08 06:48:06;;;;;;;1057.47;920.22;;;13.00;99.90;;;;;;4846184;29;20167;-94
2023/10/08 06:50:57;;;;;;;1094.35;939.60;;;13.10;99.90;;;;;;4825770;29;20067;-96
2023/10/08 06:53:29;;;;;;;1220.20;975.95;;;13.20;99.90;;;;;;4864874;29;20040;-96
2023/10/08 06:56:19;;;;;;;1185.68;956.92;;;13.20;99.90;;;;;;4862372;29;20183;-96
2023/10/08 06:58:48;;;;;;;1232.00;977.63;;;13.20;99.90;;;;;;4868255;29;20142;-96
2023/10/08 07:01:21;;;;;;;1171.65;965.63;;;13.30;99.90;;;;;;4848061;29;20057;-96
2023/10/08 07:04:03;;;;;;;1036.72;921.03;;;13.30;99.90;;;;;;4877410;29;20049;-96
2023/10/08 07:06:37;;;;;;;1125.72;946.33;;;13.30;99.90;;;;;;4865561;29;20155;-96
2023/10/08 07:09:13;;;;;;;1109.72;946.72;;;13.40;99.90;;;;;;4865736;29;20056;-95
2023/10/08 07:11:44;;;;;;;976.72;874.60;;;13.40;99.90;;;;;;4874117;29;20051;-96
2023/10/08 07:14:10;;;;;;;1007.70;897.90;;;13.50;99.90;;;;;;4853678;29;20055;-95
2023/10/08 07:16:36;;;;;;;1056.00;924.17;;;13.50;99.90;;;;;;4862940;29;20063;-96
2023/10/08 07:19:05;;;;;;;1005.45;896.30;;;13.60;99.90;;;;;;4850517;29;20045;-96
2023/10/08 07:21:44;;;;;;;956.88;859.60;;;13.60;99.90;;;;;;4847121;29;20089;-95
2023/10/08 07:27:40;;;;;;;932.95;840.75;;;13.60;99.90;;;;;;4865584;29;20053;-95
2023/10/08 07:30:26;;;;;;;983.10;880.30;;;13.70;99.90;;;;;;4864125;29;20083;-96
2023/10/08 07:32:54;;;;;;;953.22;857.58;;;13.50;99.90;;;;;;4868685;29;20301;-96
2023/10/08 07:37:50;;;;;;;975.95;873.63;;;13.70;99.90;;;;;;4896613;29;20078;-96
2023/10/08 07:40:16;;;;;;;942.65;848.90;;;13.70;99.90;;;;;;4857738;29;20060;-95
2023/10/08 07:42:51;;;;;;;966.63;868.92;;;13.70;99.90;;;;;;4876047;29;20040;-96
2023/10/08 07:45:18;;;;;;;975.45;872.03;;;13.70;99.90;;;;;;4867855;29;20063;-96
2023/10/08 07:48:09;;;;;;;953.10;854.00;;;13.60;99.90;;;;;;4873199;29;20731;-96
2023/10/08 07:51:04;;;;;;;971.33;869.53;;;13.70;99.90;;;;;;4908337;29;20052;-96
2023/10/08 07:53:37;;;;;;;976.08;873.22;;;13.90;99.90;;;;;;4876468;29;20120;-96
2023/10/08 08:16:09;;;;;;;982.00;873.17;;;14.40;99.90;;;;;;4766230;29;20063;-96
2023/10/08 08:18:57;;;;;;;916.72;822.05;;;14.50;99.90;;;;;;4838718;29;20056;-96
2023/10/08 08:21:45;;;;;;;;;;;;;;;;;;;;;
2023/10/08 08:24:35;;;;;;;861.50;775.63;;;14.60;99.90;;;;;;4866051;29;20049;-96
2023/10/08 08:27:54;;;;;;;877.47;788.00;;;14.60;99.90;;;;;;4865813;29;20132;-96
2023/10/08 08:30:52;;;;;;;;;;;;;;;;;;;;;
2023/10/08 08:36:45;;;;;;;;;;;;;;;;;;;;;
2023/10/08 08:39:49;;;;;;;854.40;773.75;;;14.60;99.90;;;;;;4881701;29;20069;-96
2023/10/08 08:42:23;;;;;;;849.60;769.17;;;14.70;99.90;;;;;;4861464;29;20634;-96
2023/10/08 08:44:54;;;;;;;888.63;797.20;;;14.70;99.90;;;;;;4863887;29;20473;-94
2023/10/08 08:47:27;;;;;;;866.35;781.22;;;14.70;99.90;;;;;;4853227;29;20093;-94
2023/10/08 08:49:55;;;;;;;;;;;14.70;99.90;;;;;;4852672;29;20060;-96
2023/10/08 08:52:23;;;;;;;902.22;809.08;;;14.80;99.90;;;;;;4865335;29;20264;-96
2023/10/08 08:54:54;;;;;;;884.45;797.67;;;14.90;99.90;;;;;;4860141;29;20056;-92
2023/10/08 08:57:36;;;;;;;916.38;825.17;;;14.90;99.90;;;;;;4862091;29;20125;-95
2023/10/08 09:00:16;;;;;;;;;;;;;;;;;;;;;
2023/10/08 09:02:47;;;;;;;847.38;766.65;;;15.00;99.90;;;;;;4867808;29;20059;-96
2023/10/08 09:05:24;;;;;;;973.55;858.85;;;15.10;99.90;;;;;;4847948;29;20045;-93
2023/10/08 09:08:02;;;;;;;903.78;812.03;;;15.10;99.90;;;;;;4864833;29;20059;-95
2023/10/08 09:10:29;;;;;;;896.45;802.08;;;15.20;99.90;;;;;;4859219;29;20063;-96
2023/10/08 09:13:16;;;;;;;919.08;824.15;;;15.20;99.90;;;;;;4863210;29;20067;-93
2023/10/08 09:16:24;;;;;;;;;;;;;;;;;;;;;
2023/10/08 09:19:27;;;;;;;943.88;843.47;;;15.40;99.90;;;;;;4881024;29;20112;-96
2023/10/08 09:22:11;;;;;;;931.75;831.05;;;15.30;99.90;;;;;;4838133;29;20441;-94
2023/10/08 09:24:39;;;;;;;818.15;740.78;;;15.30;99.90;;;;;;4855570;29;20071;-93
2023/10/08 09:27:14;;;;;;;807.70;731.55;;;15.30;99.90;;;;;;4857857;29;20054;-92
2023/10/08 09:30:09;;;;;;;921.83;826.00;;;15.30;99.90;;;;;;4853411;29;20141;-92
2023/10/08 09:32:39;;;;;;;945.70;847.42;;;15.30;99.90;;;;;;4856273;29;20097;-92
2023/10/08 09:35:10;;;;;;;914.83;819.47;;;15.30;99.90;;;;;;4848892;29;20056;-93
2023/10/08 09:37:36;;;;;;;820.58;747.13;;;15.40;99.90;;;;;;4853651;29;20054;-91
2023/10/08 09:40:09;;;;;;;861.03;777.55;;;15.40;99.90;;;;;;4852658;29;20152;-92
2023/10/08 09:42:37;;;;;;;933.22;835.38;;;15.50;99.90;;;;;;4850861;29;20491;-93
2023/10/08 09:45:24;;;;;;;916.45;823.65;;;15.60;99.90;;;;;;4858777;29;20493;-92
2023/10/08 09:48:11;;;;;;;801.03;727.72;;;15.60;99.90;;;;;;4871784;29;20053;-93
2023/10/08 09:50:40;;;;;;;844.72;761.80;;;15.60;99.90;;;;;;4855640;29;20410;-92
2023/10/08 09:53:32;;;;;;;;;;;;;;;;;;;;;
2023/10/08 09:56:26;;;;;;;906.83;813.78;;;15.80;99.90;;;;;;4857698;29;20141;-94
2023/10/08 09:59:15;;;;;;;839.08;759.45;;;15.90;99.90;;;;;;4856820;29;20046;-95
2023/10/08 10:02:20;;;;;;;903.58;810.78;;;15.90;99.90;;;;;;4815249;29;20065;-93
2023/10/08 10:04:52;;;;;;;685.03;623.83;;;16.00;99.90;;;;;;4839063;29;20521;-94
2023/10/08 10:07:29;;;;;;;763.38;691.28;;;16.00;99.90;;;;;;4854008;29;20057;-95
2023/10/08 10:09:55;;;;;;;944.30;844.13;;;16.00;99.90;;;;;;4831550;29;20056;-95
2023/10/08 10:12:26;;;;;;;950.25;850.70;;;16.00;99.90;;;;;;4853652;29;20109;-95
2023/10/08 10:14:55;;;;;;;878.75;789.20;;;16.00;99.90;;;;;;4848113;29;20056;-96
2023/10/08 10:17:28;;;;;;;837.85;754.47;;;16.10;99.90;;;;;;4839026;29;20459;-95
2023/10/08 10:20:11;;;;;;;914.13;820.80;;;16.10;99.90;;;;;;4843775;29;20060;-94
2023/10/08 10:22:42;;;;;;;930.53;834.47;;;16.10;99.90;;;;;;4854166;29;20124;-94
2023/10/08 10:25:47;;;;;;;;;;;;;;;;;;;;;
2023/10/08 10:28:28;;;;;;;965.58;863.13;;;16.30;99.90;;;;;;4840889;29;20049;-94
2023/10/08 10:30:55;;;;;;;931.88;831.03;;;16.30;99.90;;;;;;4833420;29;20111;-93
2023/10/08 10:33:21;;;;;;;892.45;798.63;;;16.40;99.90;;;;;;4837734;29;20069;-93
2023/10/08 10:35:52;;;;;;;729.47;665.00;;;16.40;99.90;;;;;;4845942;29;20057;-94
2023/10/08 10:38:20;;;;;;;783.30;711.47;;;16.50;99.90;;;;;;4853444;29;20521;-93
2023/10/08 10:40:56;;;;;;;962.20;859.15;;;16.40;99.90;;;;;;4846725;29;20056;-93
2023/10/08 10:43:32;;;;;;;901.22;810.03;;;16.50;99.90;;;;;;4855719;29;20063;-94
2023/10/08 10:46:24;;;;;;;861.00;772.50;;;16.60;99.90;;;;;;4840628;29;20223;-94
2023/10/08 10:48:57;;;;;;;930.55;831.63;;;16.70;99.90;;;;;;4861347;29;20056;-93
2023/10/08 10:51:23;;;;;;;807.33;725.25;;;16.80;99.90;;;;;;4860740;29;20215;-94
2023/10/08 10:54:07;;;;;;;760.72;692.83;;;16.80;99.90;;;;;;4859325;29;20069;-94
2023/10/08 10:56:44;;;;;;;807.30;730.80;;;16.90;99.90;;;;;;4858423;29;20083;-96
2023/10/08 10:59:53;;;;;;;644.03;590.65;;;16.90;99.90;;;;;;4858022;29;20050;-93
2023/10/08 11:02:30;;;;;;;717.45;655.17;;;16.80;99.90;;;;;;4855961;29;20428;-93
2023/10/08 11:05:07;;;;;;;797.78;724.85;;;16.90;99.90;;;;;;4857192;29;20155;-95
2023/10/08 11:07:34;;;;;;;880.22;792.65;;;16.90;99.90;;;;;;4859816;29;20136;-95
2023/10/08 11:10:01;;;;;;;650.50;597.08;;;16.80;99.90;;;;;;4859709;29;20122;-95
2023/10/08 11:12:42;;;;;;;643.15;591.00;;;16.80;99.90;;;;;;4860442;29;20488;-94
2023/10/08 11:15:15;;;;;;;654.45;602.05;;;16.70;99.90;;;;;;4861987;29;20073;-95
2023/10/08 11:17:42;;;;;;;920.97;827.88;;;16.70;99.90;;;;;;4861697;29;20073;-94
2023/10/08 11:20:25;;;;;;;700.72;636.78;;;16.70;99.90;;;;;;4860080;29;20069;-95
2023/10/08 11:22:53;;;;;;;795.97;718.38;;;16.70;99.90;;;;;;4859851;29;20053;-95
2023/10/08 11:25:27;;;;;;;613.47;562.25;;;16.70;99.90;;;;;;4844674;29;20049;-96
2023/10/08 11:28:01;;;;;;;630.17;575.80;;;16.80;99.90;;;;;;4862784;29;20045;-95
2023/10/08 11:30:35;;;;;;;812.30;736.47;;;16.80;99.90;;;;;;4862290;29;20053;-95
2023/10/08 11:33:01;;;;;;;702.40;635.50;;;16.80;99.90;;;;;;4858650;29;20068;-96
2023/10/08 11:35:28;;;;;;;668.42;612.22;;;16.80;99.90;;;;;;4862230;29;20113;-95
2023/10/08 11:38:00;;;;;;;734.83;671.00;;;16.90;99.90;;;;;;4861116;29;20133;-95
2023/10/08 11:40:48;;;;;;;649.50;593.95;;;16.90;99.90;;;;;;4861702;29;20046;-96
2023/10/08 11:43:19;;;;;;;596.95;548.17;;;17.10;99.90;;;;;;4860989;29;20129;-96
2023/10/08 11:45:49;;;;;;;651.35;594.97;;;17.00;99.90;;;;;;4861501;29;20558;-95
2023/10/08 11:48:21;;;;;;;672.40;613.83;;;17.10;99.90;;;;;;4861854;29;20042;-96
2023/10/08 11:51:17;;;;;;;637.35;585.15;;;17.10;99.90;;;;;;4857998;29;20065;-95
2023/10/08 11:53:44;;;;;;;684.97;627.22;;;17.10;99.90;;;;;;4859396;29;20085;-95
2023/10/08 11:56:13;;;;;;;650.58;595.30;;;17.20;99.90;;;;;;4832885;29;20038;-95
2023/10/08 11:58:44;;;;;;;832.33;747.45;;;17.20;99.90;;;;;;4860025;29;20049;-96
2023/10/08 12:01:15;;;;;;;660.42;605.05;;;17.20;99.90;;;;;;4875346;29;20141;-96
2023/10/08 12:03:43;;;;;;;651.75;597.72;;;17.30;99.90;;;;;;4859454;29;20045;-96
2023/10/08 12:06:15;;;;;;;687.08;629.22;;;17.30;99.90;;;;;;4860473;29;20056;-96
2023/10/08 12:08:44;;;;;;;734.65;666.53;;;17.20;99.90;;;;;;4862105;29;20045;-95
2023/10/08 12:11:12;;;;;;;646.20;592.17;;;17.20;99.90;;;;;;4854017;29;20056;-96
2023/10/08 12:13:43;;;;;;;812.85;732.95;;;17.30;99.90;;;;;;4856746;29;20053;-96
2023/10/08 12:16:17;;;;;;;802.92;727.75;;;17.40;99.90;;;;;;4845466;29;20141;-96
2023/10/08 12:18:45;;;;;;;669.50;613.13;;;17.40;99.90;;;;;;4859787;29;20418;-96
2023/10/08 12:21:14;;;;;;;651.22;596.58;;;17.40;99.90;;;;;;4843043;29;20490;-95
2023/10/08 12:23:43;;;;;;;734.70;669.42;;;17.40;99.90;;;;;;4859530;29;20037;-96
2023/10/08 12:26:09;;;;;;;688.25;632.08;;;17.30;99.90;;;;;;4844018;29;20470;-95
2023/10/08 12:28:36;;;;;;;880.55;793.67;;;17.20;99.90;;;;;;4843114;29;20041;-96
2023/10/08 12:31:03;;;;;;;931.25;834.63;;;17.40;99.90;;;;;;4858930;29;20060;-95
2023/10/08 12:33:31;;;;;;;830.70;750.28;;;17.40;99.90;;;;;;4845990;29;20052;-95
2023/10/08 12:35:57;;;;;;;821.75;744.50;;;17.40;99.90;;;;;;4843370;29;20049;-94
2023/10/08 12:38:27;;;;;;;1023.75;911.20;;;17.40;99.90;;;;;;4857129;29;20049;-95
2023/10/08 12:40:54;;;;;;;761.83;689.85;;;17.40;99.90;;;;;;4861776;29;20057;-95
2023/10/08 12:43:22;;;;;;;976.05;872.42;;;17.40;99.90;;;;;;4876902;29;20105;-94
2023/10/08 12:45:52;;;;;;;832.75;749.75;;;17.40;99.90;;;;;;4876503;29;20057;-94
2023/10/08 12:48:26;;;;;;;824.22;745.55;;;17.30;99.90;;;;;;4876832;29;20135;-94
2023/10/08 12:50:56;;;;;;;806.03;730.42;;;17.30;99.90;;;;;;4861036;29;20132;-94
2023/10/08 12:53:26;;;;;;;682.90;624.42;;;17.30;99.90;;;;;;4861592;29;20049;-94
2023/10/08 12:55:58;;;;;;;674.35;616.55;;;17.30;99.90;;;;;;4862429;29;20045;-94
2023/10/08 12:58:31;;;;;;;847.00;763.13;;;17.30;99.90;;;;;;4887247;29;20057;-94
2023/10/08 13:00:58;;;;;;;798.50;721.22;;;17.30;99.90;;;;;;4876054;29;20553;-94
2023/10/08 13:03:30;;;;;;;723.38;658.40;;;17.30;99.90;;;;;;4880620;29;20033;-94
2023/10/08 13:06:03;;;;;;;754.90;685.35;;;17.30;99.90;;;;;;4878726;29;20565;-93
2023/10/08 13:08:34;;;;;;;699.65;637.38;;;17.20;99.90;;;;;;4876106;29;20485;-94
2023/10/08 13:11:01;;;;;;;930.30;830.25;;;17.20;99.90;;;;;;4864873;29;20578;-94
2023/10/08 13:13:28;;;;;;;844.95;762.40;;;17.20;99.90;;;;;;4877726;29;20041;-93
2023/10/08 13:15:56;;;;;;;869.83;782.03;;;17.20;99.90;;;;;;4876162;29;20048;-93
2023/10/08 13:18:25;;;;;;;727.63;665.00;;;17.20;99.90;;;;;;4859854;29;20049;-94
2023/10/08 13:20:54;;;;;;;865.97;778.40;;;17.20;99.90;;;;;;4876498;29;20057;-93
2023/10/08 13:23:23;;;;;;;768.22;695.17;;;17.30;99.90;;;;;;4875623;29;20104;-92
2023/10/08 13:25:54;;;;;;;760.30;690.60;;;17.20;99.90;;;;;;4876326;29;20532;-93
2023/10/08 13:28:22;;;;;;;722.60;657.17;;;17.20;99.90;;;;;;4875383;29;20111;-93
2023/10/08 13:30:52;;;;;;;815.17;734.95;;;17.20;99.90;;;;;;4875210;29;20056;-94
2023/10/08 13:33:20;;;;;;;763.17;693.25;;;17.30;99.90;;;;;;4876077;29;20405;-92
2023/10/08 13:35:49;;;;;;;960.38;858.72;;;17.30;99.90;;;;;;4876047;29;20057;-92
2023/10/08 13:38:19;;;;;;;825.00;742.13;;;17.40;99.90;;;;;;4875175;29;20474;-93
2023/10/08 13:41:02;;;;;;;994.78;887.65;;;17.50;99.90;;;;;;4875761;29;20144;-93
2023/10/08 13:43:33;;;;;;;1098.28;937.22;;;17.60;99.90;;;;;;4850511;29;20496;-93
2023/10/08 13:46:04;;;;;;;949.88;847.38;;;17.60;99.90;;;;;;4875360;29;20049;-93
2023/10/08 13:48:35;;;;;;;968.60;864.00;;;17.60;99.90;;;;;;4860046;29;20080;-94
2023/10/08 13:51:13;;;;;;;1177.40;967.85;;;17.60;99.90;;;;;;5022848;27;1305034;-92
2023/10/08 13:53:41;;;;;;;1019.03;899.22;;;17.50;99.90;;;;;;5025581;28;20100;-92
2023/10/08 13:56:07;;;;;;;789.58;709.47;;;17.40;99.90;;;;;;5030231;28;20038;-93